< < Back
Terminal Aerodrome Forecast


Current Version              Previous Versions:   1  2  3  4  5  6  7  8  9  

Terminal Aerodrome Forecast

305
FTUS42 KTAE 241120
TAFABY
TAF
KABY 241120Z 2412/2512 00000KT P6SM FEW250
     FM241800 03006KT P6SM SCT050=

Latest METAR

405
SAUS70 KWBC 250500 RRI
MTRABY
METAR KABY 250453Z AUTO 00000KT 10SM FEW080 23/20 A3004 RMK AO2 SLP170
T02330200 403440211


USA.gov is the U.S. government's official web portal to all federal, state and local government web resources and services.